Airport View

Enter AWOS ICAO identifier for current METAR.

ex. KFNL

KSWF 242345Z 16005KT 10SM SKC 19/09 A3020

25 May 2020 00:41

Other Area AWOS: KMGJ - KPOU - KDXR - KFWN

TAF KSWF 242337Z 2500/2606 VRB03KT P6SM FEW015 FM250700 VRB03KT P6SM BKN008 OVC012 FM251500 17004KT P6SM BKN025 FM251700 17007KT P6SM SCT035 AMD NOT SKED